createdAt,value
2023-03-29T00:00:00.575Z,59
2023-03-29T00:15:00.552Z,60
2023-03-29T00:30:00.566Z,60
2023-03-29T00:45:00.639Z,60
2023-03-29T01:00:00.571Z,60
2023-03-29T01:15:00.506Z,60
2023-03-29T01:30:00.539Z,60
2023-03-29T01:45:00.609Z,61
2023-03-29T02:00:00.556Z,61
2023-03-29T02:15:00.600Z,61
2023-03-29T02:30:00.538Z,61
2023-03-29T02:45:00.610Z,61
2023-03-29T03:00:00.589Z,61
2023-03-29T03:15:00.515Z,62
2023-03-29T03:30:00.561Z,62
2023-03-29T03:45:00.605Z,62
2023-03-29T04:00:00.549Z,64
2023-03-29T04:15:00.521Z,65
2023-03-29T04:30:00.531Z,65
2023-03-29T04:45:00.733Z,65
2023-03-29T05:00:00.540Z,65
2023-03-29T05:15:00.541Z,65
2023-03-29T05:30:00.660Z,65
2023-03-29T05:45:00.578Z,65
2023-03-29T06:00:00.527Z,66
2023-03-29T06:15:00.546Z,66
2023-03-29T06:30:00.567Z,66
2023-03-29T06:45:00.622Z,66
2023-03-29T07:00:00.550Z,66
2023-03-29T07:15:00.539Z,66
2023-03-29T07:30:01.774Z,64
2023-03-29T07:45:00.582Z,64
2023-03-29T08:00:00.560Z,62
2023-03-29T08:15:00.579Z,62
2023-03-29T08:30:00.563Z,61
2023-03-29T08:45:00.604Z,61
2023-03-29T09:00:00.503Z,60
2023-03-29T09:15:00.566Z,60
2023-03-29T09:30:00.546Z,60
2023-03-29T09:45:00.586Z,59
2023-03-29T10:00:00.574Z,58
2023-03-29T10:15:00.639Z,58
2023-03-29T10:30:00.527Z,58
2023-03-29T10:45:00.714Z,56
2023-03-29T11:00:00.523Z,54
2023-03-29T11:15:00.534Z,52
2023-03-29T11:30:00.517Z,52
2023-03-29T11:45:00.610Z,53
2023-03-29T12:00:00.571Z,53
2023-03-29T12:15:00.524Z,53
2023-03-29T12:30:00.572Z,52
2023-03-29T12:45:00.654Z,52
2023-03-29T13:00:00.557Z,51
2023-03-29T13:15:00.538Z,50
2023-03-29T13:30:00.549Z,50
2023-03-29T13:45:00.610Z,50
2023-03-29T14:00:00.586Z,49
2023-03-29T14:15:00.631Z,49
2023-03-29T14:30:00.581Z,47
2023-03-29T14:45:00.594Z,48
2023-03-29T15:00:00.619Z,48
2023-03-29T15:15:00.528Z,47
2023-03-29T15:30:00.546Z,48
2023-03-29T15:45:00.575Z,48
2023-03-29T16:00:00.641Z,49
2023-03-29T16:15:00.553Z,48
2023-03-29T16:30:00.636Z,49
2023-03-29T16:45:00.530Z,50
2023-03-29T17:00:00.569Z,49
2023-03-29T17:15:01.338Z,50
2023-03-29T17:30:00.874Z,51
2023-03-29T17:45:00.550Z,51
2023-03-29T18:00:00.560Z,52
2023-03-29T18:15:00.548Z,55
2023-03-29T18:30:00.682Z,56
2023-03-29T18:45:00.546Z,57
2023-03-29T19:00:00.607Z,58
2023-03-29T19:15:00.591Z,58
2023-03-29T19:30:00.596Z,58
2023-03-29T19:45:00.615Z,59
2023-03-29T20:00:00.615Z,60
2023-03-29T20:15:00.555Z,60
2023-03-29T20:30:00.537Z,61
2023-03-29T20:45:00.616Z,61
2023-03-29T21:00:00.561Z,61
2023-03-29T21:15:00.527Z,62
2023-03-29T21:30:00.642Z,62
2023-03-29T21:45:00.632Z,63
2023-03-29T22:00:00.526Z,63
2023-03-29T22:15:00.551Z,64
2023-03-29T22:30:00.583Z,64
2023-03-29T22:45:00.563Z,66
2023-03-29T23:00:00.548Z,65
2023-03-29T23:15:00.513Z,66
2023-03-29T23:30:00.538Z,66
2023-03-29T23:45:00.612Z,66
